Time;durP1;ratioP1;P1;durP2;ratioP2;P2;SDS_P1;SDS_P2;PMS_P1;PMS_P2;Temp;Humidity;BMP_temperature;BMP_pressure;BME280_temperature;BME280_humidity;BME280_pressure;Samples;Min_cycle;Max_cycle;Signal;HPM_P1;HPM_P2
2023/02/28 00:01:29;;;;;;;2.08;1.15;;;6.00;99.90;;;;;;5067015;28;20628;-76
2023/02/28 00:03:59;;;;;;;1.25;1.00;;;5.90;99.90;;;;;;5044107;28;20203;-75
2023/02/28 00:06:28;;;;;;;1.85;1.17;;;5.90;99.90;;;;;;5043666;28;20218;-75
2023/02/28 00:08:56;;;;;;;1.40;0.80;;;5.90;99.90;;;;;;5040111;28;20225;-75
2023/02/28 00:11:25;;;;;;;1.60;1.10;;;6.00;99.90;;;;;;5048307;28;20244;-76
2023/02/28 00:13:53;;;;;;;1.20;1.00;;;5.90;99.90;;;;;;5059098;28;20550;-76
2023/02/28 00:16:23;;;;;;;2.05;1.05;;;5.90;99.90;;;;;;5062724;28;20217;-75
2023/02/28 00:18:51;;;;;;;1.33;0.75;;;5.90;99.90;;;;;;5046465;28;20272;-75
2023/02/28 00:21:22;;;;;;;1.35;0.90;;;5.90;99.90;;;;;;5049092;28;20231;-76
2023/02/28 00:23:50;;;;;;;1.00;0.70;;;5.90;99.90;;;;;;5044983;28;20197;-75
2023/02/28 00:26:18;;;;;;;0.90;0.70;;;5.90;99.90;;;;;;5046518;28;20725;-75
2023/02/28 00:28:50;;;;;;;1.33;0.82;;;5.90;99.90;;;;;;5044280;28;20186;-75
2023/02/28 00:31:18;;;;;;;1.42;1.00;;;5.90;99.90;;;;;;5049361;28;20196;-76
2023/02/28 00:33:48;;;;;;;2.30;1.20;;;5.90;99.90;;;;;;5044431;28;20616;-76
2023/02/28 00:36:17;;;;;;;2.30;0.82;;;5.90;99.90;;;;;;5045053;28;20245;-75
2023/02/28 00:38:47;;;;;;;1.30;1.20;;;5.90;99.90;;;;;;5041325;28;20280;-75
2023/02/28 00:41:15;;;;;;;1.60;0.95;;;5.90;99.90;;;;;;5047875;28;20205;-76
2023/02/28 00:43:43;;;;;;;2.22;0.95;;;5.90;99.90;;;;;;5044605;28;20203;-75
2023/02/28 00:46:12;;;;;;;1.92;1.20;;;5.90;99.90;;;;;;5047676;28;20785;-76
2023/02/28 00:48:40;;;;;;;1.83;1.20;;;5.90;99.90;;;;;;5044599;28;20193;-75
2023/02/28 00:51:09;;;;;;;1.00;0.85;;;5.90;99.90;;;;;;5048844;28;20196;-76
2023/02/28 00:53:37;;;;;;;1.83;0.98;;;5.90;99.90;;;;;;5045600;28;20197;-75
2023/02/28 00:56:07;;;;;;;2.08;1.38;;;5.90;99.90;;;;;;5064112;28;20330;-75
2023/02/28 00:58:36;;;;;;;1.30;1.13;;;5.90;99.90;;;;;;5044182;28;20306;-77
2023/02/28 01:01:05;;;;;;;1.00;0.75;;;5.90;99.90;;;;;;5046351;28;20228;-74
2023/02/28 01:03:33;;;;;;;3.15;1.00;;;5.90;99.90;;;;;;5063689;28;20196;-74
2023/02/28 01:06:02;;;;;;;1.77;1.10;;;5.90;99.90;;;;;;5051484;28;20244;-75
2023/02/28 01:08:30;;;;;;;1.45;0.80;;;5.90;99.90;;;;;;5063424;28;20605;-76
2023/02/28 01:10:59;;;;;;;2.45;0.98;;;5.90;99.90;;;;;;5027539;28;20196;-76
2023/02/28 01:13:28;;;;;;;1.67;1.40;;;5.90;99.90;;;;;;5063536;28;20283;-76
2023/02/28 01:15:59;;;;;;;1.20;0.90;;;5.90;99.90;;;;;;5046684;28;21016;-75
2023/02/28 01:18:28;;;;;;;1.00;0.80;;;5.90;99.90;;;;;;5042203;28;20332;-74
2023/02/28 01:20:56;;;;;;;2.20;1.30;;;5.90;99.90;;;;;;5045210;28;20276;-77
2023/02/28 01:23:25;;;;;;;1.33;1.17;;;5.90;99.90;;;;;;5058856;28;20271;-77
2023/02/28 01:25:53;;;;;;;1.35;1.00;;;5.90;99.90;;;;;;5040404;28;20606;-75
2023/02/28 01:28:22;;;;;;;1.30;0.93;;;5.90;99.90;;;;;;5045614;28;20260;-76
2023/02/28 01:30:52;;;;;;;1.05;0.65;;;5.90;99.90;;;;;;5047619;28;20189;-75
2023/02/28 01:33:21;;;;;;;3.67;1.35;;;5.90;99.90;;;;;;5046867;28;20194;-75
2023/02/28 01:35:49;;;;;;;1.48;1.08;;;5.90;99.90;;;;;;5045827;28;20623;-73
2023/02/28 01:38:17;;;;;;;0.90;0.80;;;5.90;99.90;;;;;;5049105;28;20251;-76
2023/02/28 01:40:51;;;;;;;1.25;0.98;;;5.90;99.90;;;;;;5047452;28;20781;-75
2023/02/28 01:43:22;;;;;;;1.75;1.02;;;5.90;99.90;;;;;;5027371;28;20209;-75
2023/02/28 01:45:53;;;;;;;1.60;0.90;;;5.80;99.90;;;;;;5045765;28;20668;-74
2023/02/28 01:48:25;;;;;;;1.30;1.00;;;5.80;99.90;;;;;;5045881;28;20209;-74
2023/02/28 01:50:57;;;;;;;2.28;1.20;;;5.90;99.90;;;;;;5046816;28;20193;-74
2023/02/28 01:53:31;;;;;;;1.60;1.00;;;5.80;99.90;;;;;;5061382;28;20199;-75
2023/02/28 01:55:59;;;;;;;1.45;1.00;;;5.80;99.90;;;;;;5037120;28;20263;-75
2023/02/28 01:58:28;;;;;;;1.83;1.20;;;5.80;99.90;;;;;;5038537;28;20667;-78
2023/02/28 02:00:58;;;;;;;1.23;0.80;;;5.80;99.90;;;;;;5046395;28;20195;-76
2023/02/28 02:03:27;;;;;;;2.10;1.13;;;5.80;99.90;;;;;;5046407;28;20715;-73
2023/02/28 02:05:55;;;;;;;1.00;0.80;;;5.80;99.90;;;;;;5045126;28;20221;-76
2023/02/28 02:08:27;;;;;;;1.02;0.60;;;5.80;99.90;;;;;;5047898;28;20254;-75
2023/02/28 02:10:58;;;;;;;1.00;0.80;;;5.80;99.90;;;;;;5043460;28;20190;-76
2023/02/28 02:13:43;;;;;;;1.80;1.15;;;5.80;99.90;;;;;;5044294;28;20192;-76
2023/02/28 02:16:29;;;;;;;2.28;1.27;;;5.80;99.90;;;;;;5058645;28;20244;-74
2023/02/28 02:19:09;;;;;;;1.00;0.70;;;5.80;99.90;;;;;;5034082;28;20342;-75
2023/02/28 02:22:07;;;;;;;1.70;0.70;;;5.80;99.90;;;;;;5038490;28;20220;-74
2023/02/28 02:25:19;;;;;;;2.00;1.00;;;5.80;99.90;;;;;;5043528;28;20212;-75
2023/02/28 02:28:16;;;;;;;1.10;0.70;;;5.80;99.90;;;;;;5061422;28;20252;-76
2023/02/28 02:31:11;;;;;;;0.95;0.70;;;5.80;99.90;;;;;;5038640;28;20220;-77
2023/02/28 02:34:17;;;;;;;1.15;0.77;;;5.80;99.90;;;;;;5046855;28;20280;-76
2023/02/28 02:36:53;;;;;;;1.00;0.70;;;5.80;99.90;;;;;;5058457;28;20228;-74
2023/02/28 02:39:30;;;;;;;1.05;0.70;;;5.80;99.90;;;;;;5043270;28;20319;-74
2023/02/28 02:42:02;;;;;;;1.33;1.00;;;5.80;99.90;;;;;;5049488;28;20677;-76
2023/02/28 02:44:40;;;;;;;1.88;1.00;;;5.80;99.90;;;;;;5044171;28;20221;-74
2023/02/28 02:47:13;;;;;;;1.80;1.08;;;5.70;99.90;;;;;;5044212;28;20213;-75
2023/02/28 02:49:44;;;;;;;1.20;0.90;;;5.80;99.90;;;;;;5042534;28;20217;-75
2023/02/28 02:52:17;;;;;;;1.50;0.77;;;5.80;99.90;;;;;;5044659;28;20208;-75
2023/02/28 02:54:49;;;;;;;2.35;0.85;;;5.70;99.90;;;;;;5043551;28;20219;-74
2023/02/28 02:57:24;;;;;;;1.30;1.17;;;5.70;99.90;;;;;;5048669;28;20229;-75
2023/02/28 02:59:54;;;;;;;2.22;0.98;;;5.70;99.90;;;;;;5064910;28;20636;-75
2023/02/28 03:02:25;;;;;;;1.33;0.98;;;5.70;99.90;;;;;;5051116;28;20207;-76
2023/02/28 03:05:00;;;;;;;1.20;0.90;;;5.80;99.90;;;;;;5048030;28;20655;-75
2023/02/28 03:07:30;;;;;;;2.08;1.20;;;5.70;99.90;;;;;;5051320;28;20225;-74
2023/02/28 03:09:58;;;;;;;1.00;0.70;;;5.70;99.90;;;;;;5048224;28;20237;-75
2023/02/28 03:12:34;;;;;;;1.20;1.00;;;5.70;99.90;;;;;;5052625;28;20189;-74
2023/02/28 03:15:10;;;;;;;1.40;0.98;;;5.70;99.90;;;;;;5045992;28;20254;-76
2023/02/28 03:18:00;;;;;;;1.23;0.70;;;5.70;99.90;;;;;;5050301;28;20217;-77
2023/02/28 03:20:39;;;;;;;1.10;0.80;;;5.70;99.90;;;;;;5064551;28;20303;-76
2023/02/28 03:23:17;;;;;;;1.00;0.73;;;5.70;99.90;;;;;;5052572;28;20193;-75
2023/02/28 03:25:57;;;;;;;1.90;1.45;;;5.70;99.90;;;;;;5050287;28;20307;-75
2023/02/28 03:28:34;;;;;;;1.17;0.80;;;5.70;99.90;;;;;;5047952;28;20189;-74
2023/02/28 03:31:09;;;;;;;1.88;1.00;;;5.70;99.90;;;;;;5043911;28;20530;-74
2023/02/28 03:33:41;;;;;;;1.60;1.10;;;5.70;99.90;;;;;;5050276;28;20283;-75
2023/02/28 03:36:14;;;;;;;1.05;0.95;;;5.70;99.90;;;;;;5051144;28;20267;-75
2023/02/28 03:38:48;;;;;;;1.50;0.80;;;5.70;99.90;;;;;;5064790;28;20305;-74
2023/02/28 03:41:20;;;;;;;1.25;0.70;;;5.70;99.90;;;;;;5051198;28;20235;-76
2023/02/28 03:43:55;;;;;;;1.83;0.82;;;5.70;99.90;;;;;;5060070;28;20291;-74
2023/02/28 03:46:26;;;;;;;1.20;1.10;;;5.70;99.90;;;;;;5048172;28;20220;-75
2023/02/28 03:48:58;;;;;;;2.50;0.95;;;5.70;99.90;;;;;;5042321;28;20225;-74
2023/02/28 03:51:28;;;;;;;1.65;1.02;;;5.70;99.90;;;;;;5047339;28;20223;-75
2023/02/28 03:54:04;;;;;;;1.33;0.70;;;5.70;99.90;;;;;;5043431;28;20206;-75
2023/02/28 03:56:35;;;;;;;1.95;1.20;;;5.70;99.90;;;;;;5049051;28;20242;-74
2023/02/28 03:59:08;;;;;;;1.10;0.82;;;5.70;99.90;;;;;;5050883;28;20823;-76
2023/02/28 04:01:41;;;;;;;1.23;0.88;;;5.70;99.90;;;;;;5046251;28;20209;-74
2023/02/28 04:04:10;;;;;;;1.25;0.90;;;5.70;99.90;;;;;;5051156;28;20290;-75
2023/02/28 04:06:39;;;;;;;1.55;0.95;;;5.70;99.90;;;;;;5073160;28;20245;-75
2023/02/28 04:09:12;;;;;;;1.02;0.85;;;5.70;99.90;;;;;;5048834;28;20248;-74
2023/02/28 04:11:42;;;;;;;1.20;0.90;;;5.60;99.90;;;;;;5046754;28;20296;-74
2023/02/28 04:14:11;;;;;;;1.25;0.70;;;5.60;99.90;;;;;;5048780;28;20280;-75
2023/02/28 04:16:42;;;;;;;1.90;1.13;;;5.60;99.90;;;;;;5047485;28;20248;-76
2023/02/28 04:19:12;;;;;;;1.15;0.90;;;5.60;99.90;;;;;;5041304;28;20228;-76
2023/02/28 04:21:42;;;;;;;3.53;1.70;;;5.70;99.90;;;;;;5047871;28;20659;-77
2023/02/28 04:24:14;;;;;;;2.00;1.10;;;5.70;99.90;;;;;;5049375;28;20197;-75
2023/02/28 04:26:47;;;;;;;1.15;0.80;;;5.60;99.90;;;;;;5049102;28;20252;-75
2023/02/28 04:29:20;;;;;;;1.10;0.70;;;5.60;99.90;;;;;;5044326;28;20715;-74
2023/02/28 04:31:49;;;;;;;1.38;0.95;;;5.60;99.90;;;;;;5045119;28;20276;-76
2023/02/28 04:34:18;;;;;;;1.00;0.90;;;5.60;99.90;;;;;;5039039;28;20225;-75
2023/02/28 04:36:48;;;;;;;0.90;0.60;;;5.60;99.90;;;;;;5064811;28;20218;-76
2023/02/28 04:39:36;;;;;;;3.05;1.30;;;5.60;99.90;;;;;;5048357;28;20203;-73
2023/02/28 04:42:05;;;;;;;1.40;0.90;;;5.60;99.90;;;;;;5045165;28;20223;-76
2023/02/28 04:44:33;;;;;;;0.90;0.70;;;5.60;99.90;;;;;;5046235;28;20622;-74
2023/02/28 04:47:01;;;;;;;2.08;1.45;;;5.60;99.90;;;;;;5046492;28;20224;-73
2023/02/28 04:49:30;;;;;;;1.40;0.90;;;5.60;99.90;;;;;;5061340;28;20287;-75
2023/02/28 04:51:58;;;;;;;1.50;0.80;;;5.60;99.90;;;;;;5048890;28;20227;-75
2023/02/28 04:54:28;;;;;;;1.15;1.05;;;5.60;99.90;;;;;;5043010;28;20677;-75
2023/02/28 04:56:57;;;;;;;1.58;0.88;;;5.60;99.90;;;;;;5038229;28;20632;-76
2023/02/28 04:59:26;;;;;;;1.65;0.70;;;5.60;99.90;;;;;;5052474;28;20479;-73
2023/02/28 05:01:54;;;;;;;1.05;0.63;;;5.50;99.90;;;;;;5047463;28;20269;-75
2023/02/28 05:04:22;;;;;;;0.80;0.60;;;5.50;99.90;;;;;;5046906;28;20208;-74
2023/02/28 05:06:51;;;;;;;1.08;0.77;;;5.50;99.90;;;;;;5046670;28;20216;-73
2023/02/28 05:09:19;;;;;;;1.50;0.90;;;5.60;99.90;;;;;;5049846;28;20201;-74
2023/02/28 05:11:48;;;;;;;0.93;0.60;;;5.50;99.90;;;;;;5052741;28;20583;-76
2023/02/28 05:14:17;;;;;;;1.65;0.90;;;5.50;99.90;;;;;;5045699;28;20225;-74
2023/02/28 05:16:46;;;;;;;1.23;0.70;;;5.50;99.90;;;;;;5043217;28;20212;-74
2023/02/28 05:19:14;;;;;;;1.27;0.80;;;5.50;99.90;;;;;;5048450;28;20555;-75
2023/02/28 05:21:50;;;;;;;1.75;1.20;;;5.50;99.90;;;;;;5046755;28;20244;-75
2023/02/28 05:24:22;;;;;;;2.00;0.90;;;5.50;99.90;;;;;;5042801;28;20224;-75
2023/02/28 05:26:53;;;;;;;2.00;1.10;;;5.50;99.90;;;;;;5046278;28;20208;-75
2023/02/28 05:29:23;;;;;;;1.33;0.80;;;5.50;99.90;;;;;;5047179;28;20223;-75
2023/02/28 05:31:51;;;;;;;1.63;0.93;;;5.50;99.90;;;;;;5044225;28;20192;-75
2023/02/28 05:34:20;;;;;;;1.80;0.90;;;5.50;99.90;;;;;;5043484;28;20220;-76
2023/02/28 05:36:48;;;;;;;0.88;0.75;;;5.50;99.90;;;;;;5046873;28;20251;-76
2023/02/28 05:39:17;;;;;;;3.60;1.00;;;5.50;99.90;;;;;;5046656;28;20213;-73
2023/02/28 05:41:45;;;;;;;1.10;0.80;;;5.50;99.90;;;;;;5044181;28;21147;-74
2023/02/28 05:44:13;;;;;;;1.55;1.00;;;5.50;99.90;;;;;;5050687;28;20201;-74
2023/02/28 05:46:43;;;;;;;1.40;0.85;;;5.50;99.90;;;;;;5046007;28;20223;-74
2023/02/28 05:49:12;;;;;;;1.00;0.88;;;5.50;99.90;;;;;;5046715;28;20772;-75
2023/02/28 05:51:40;;;;;;;2.08;1.00;;;5.50;99.90;;;;;;5046914;28;20193;-74
2023/02/28 05:54:08;;;;;;;1.10;0.98;;;5.50;99.90;;;;;;5046048;28;20196;-75
2023/02/28 05:56:39;;;;;;;1.30;1.05;;;5.50;99.90;;;;;;5044268;28;20216;-75
2023/02/28 05:59:08;;;;;;;2.03;1.05;;;5.50;99.90;;;;;;5048349;28;20239;-76
2023/02/28 06:01:38;;;;;;;1.00;0.75;;;5.50;99.90;;;;;;5052191;28;20246;-75
2023/02/28 06:04:10;;;;;;;1.20;0.82;;;5.50;99.90;;;;;;5046554;28;20189;-74
2023/02/28 06:06:53;;;;;;;1.88;1.05;;;5.40;99.90;;;;;;5048331;28;20304;-75
2023/02/28 06:09:21;;;;;;;1.48;0.70;;;5.40;99.90;;;;;;5047120;28;20684;-74
2023/02/28 06:11:49;;;;;;;2.15;1.23;;;5.40;99.90;;;;;;5045392;28;20251;-74
2023/02/28 06:14:19;;;;;;;1.02;0.68;;;5.40;99.90;;;;;;5041789;28;20200;-75
2023/02/28 06:16:48;;;;;;;1.10;0.90;;;5.40;99.90;;;;;;5043158;28;20278;-73
2023/02/28 06:19:18;;;;;;;2.17;1.17;;;5.40;99.90;;;;;;5039358;28;20196;-74
2023/02/28 06:21:50;;;;;;;1.98;1.10;;;5.40;99.90;;;;;;5060850;28;20265;-75
2023/02/28 06:24:19;;;;;;;1.15;0.80;;;5.40;99.90;;;;;;5045011;28;20282;-75
2023/02/28 06:26:47;;;;;;;3.35;0.90;;;5.40;99.90;;;;;;5045606;28;20401;-75
2023/02/28 06:29:16;;;;;;;1.67;1.10;;;5.40;99.90;;;;;;5048142;28;20242;-74
2023/02/28 06:31:45;;;;;;;1.20;1.00;;;5.40;99.90;;;;;;5044783;28;20216;-74
2023/02/28 06:34:14;;;;;;;1.60;0.80;;;5.40;99.90;;;;;;5063806;28;20435;-76
2023/02/28 06:36:44;;;;;;;1.23;0.88;;;5.40;99.90;;;;;;5046683;28;20249;-75
2023/02/28 06:39:13;;;;;;;1.30;0.95;;;5.40;99.90;;;;;;5048870;28;20243;-76
2023/02/28 06:41:41;;;;;;;1.05;0.90;;;5.40;99.90;;;;;;5051844;28;20292;-76
2023/02/28 06:44:22;;;;;;;1.27;0.80;;;5.40;99.90;;;;;;5060007;28;20257;-75
2023/02/28 06:46:50;;;;;;;1.70;1.17;;;5.40;99.90;;;;;;5037873;28;20215;-73
2023/02/28 06:49:19;;;;;;;0.90;0.73;;;5.40;99.90;;;;;;5050150;28;20253;-76
2023/02/28 06:51:49;;;;;;;1.60;0.98;;;5.40;99.90;;;;;;5050562;28;20925;-74
2023/02/28 06:54:18;;;;;;;1.30;0.88;;;5.40;99.90;;;;;;5049938;28;20296;-75
2023/02/28 06:56:46;;;;;;;1.13;0.70;;;5.40;99.90;;;;;;5045810;28;20580;-73
2023/02/28 06:59:15;;;;;;;1.15;0.98;;;5.40;99.90;;;;;;5044907;28;20228;-75
2023/02/28 07:01:43;;;;;;;1.20;0.80;;;5.40;99.90;;;;;;5051601;28;20214;-76
2023/02/28 07:04:12;;;;;;;1.33;1.15;;;5.40;99.90;;;;;;5050147;28;20748;-75
2023/02/28 07:06:41;;;;;;;1.30;1.17;;;5.40;99.90;;;;;;5067550;28;20278;-76
2023/02/28 07:09:11;;;;;;;1.30;0.82;;;5.40;99.90;;;;;;5044561;28;20578;-75
2023/02/28 07:11:40;;;;;;;1.75;1.15;;;5.40;99.90;;;;;;5047094;28;20287;-73
2023/02/28 07:14:09;;;;;;;1.30;0.90;;;5.30;99.90;;;;;;5050639;28;20601;-74
2023/02/28 07:16:37;;;;;;;2.20;1.30;;;5.30;99.90;;;;;;5047733;28;20271;-76
2023/02/28 07:19:06;;;;;;;1.30;0.80;;;5.30;99.90;;;;;;5050600;28;20196;-74
2023/02/28 07:21:34;;;;;;;1.50;0.70;;;5.30;99.90;;;;;;5064717;28;20209;-74
2023/02/28 07:24:03;;;;;;;1.20;0.80;;;5.30;99.90;;;;;;5046802;28;20215;-76
2023/02/28 07:26:33;;;;;;;1.10;0.80;;;5.30;99.90;;;;;;5046328;28;20308;-75
2023/02/28 07:29:02;;;;;;;1.15;0.80;;;5.30;99.90;;;;;;5045336;28;20204;-75
2023/02/28 07:31:31;;;;;;;1.42;1.05;;;5.30;99.90;;;;;;5046561;28;20282;-75
2023/02/28 07:33:59;;;;;;;2.15;1.10;;;5.30;99.90;;;;;;5046337;28;20220;-75
2023/02/28 07:36:28;;;;;;;1.92;0.80;;;5.30;99.90;;;;;;5050287;28;20742;-77
2023/02/28 07:38:56;;;;;;;1.08;0.90;;;5.30;99.90;;;;;;5046450;28;20823;-74
2023/02/28 07:41:27;;;;;;;1.20;1.10;;;5.30;99.90;;;;;;5050509;28;20248;-76
2023/02/28 07:43:59;;;;;;;1.65;0.90;;;5.30;99.90;;;;;;5060832;28;20188;-74
2023/02/28 07:46:29;;;;;;;1.60;1.50;;;5.30;99.90;;;;;;5065924;28;20303;-75
2023/02/28 07:48:59;;;;;;;2.03;1.30;;;5.30;99.90;;;;;;5042115;28;20262;-75
2023/02/28 07:51:28;;;;;;;1.80;1.27;;;5.30;99.90;;;;;;5041832;28;20742;-76
2023/02/28 07:53:57;;;;;;;1.10;0.73;;;5.30;99.90;;;;;;5043149;28;20227;-76
2023/02/28 07:56:25;;;;;;;1.20;0.90;;;5.30;99.90;;;;;;5048546;28;20323;-75
2023/02/28 07:58:54;;;;;;;1.42;0.98;;;5.30;99.90;;;;;;5045911;28;20216;-75
2023/02/28 08:01:24;;;;;;;1.40;0.80;;;5.30;99.90;;;;;;5041322;28;20209;-75
2023/02/28 08:03:54;;;;;;;1.27;0.93;;;5.30;99.90;;;;;;5044836;28;20233;-75
2023/02/28 08:06:24;;;;;;;1.52;1.05;;;5.30;99.90;;;;;;5029548;28;20566;-75
2023/02/28 08:08:55;;;;;;;1.95;1.35;;;5.30;99.90;;;;;;5046733;28;20221;-75
2023/02/28 08:11:24;;;;;;;1.60;1.10;;;5.20;99.90;;;;;;5027433;28;20794;-74
2023/02/28 08:13:52;;;;;;;2.70;1.30;;;5.20;99.90;;;;;;5033575;28;20232;-76
2023/02/28 08:16:22;;;;;;;1.55;0.90;;;5.20;99.90;;;;;;5034037;28;20224;-74
2023/02/28 08:18:52;;;;;;;1.30;0.90;;;5.30;99.90;;;;;;5031274;28;20199;-74
2023/02/28 08:21:22;;;;;;;1.50;1.00;;;5.30;99.90;;;;;;5047763;28;20236;-75
2023/02/28 08:23:51;;;;;;;2.30;1.35;;;5.30;99.90;;;;;;5061078;28;20308;-74
2023/02/28 08:26:21;;;;;;;1.30;0.93;;;5.30;99.90;;;;;;5065078;28;20581;-75
2023/02/28 08:28:49;;;;;;;1.77;1.17;;;5.30;99.90;;;;;;5042297;28;20290;-74
2023/02/28 08:31:19;;;;;;;1.33;0.80;;;5.30;99.90;;;;;;5045380;28;20262;-74
2023/02/28 08:33:50;;;;;;;2.15;1.30;;;5.30;99.90;;;;;;5062031;28;20322;-76
2023/02/28 08:36:20;;;;;;;3.28;1.10;;;5.30;99.90;;;;;;5059312;28;20707;-75
2023/02/28 08:38:49;;;;;;;1.27;1.15;;;5.30;99.90;;;;;;5056570;28;20753;-75
2023/02/28 08:41:18;;;;;;;1.63;1.30;;;5.30;99.90;;;;;;5040292;28;20291;-74
2023/02/28 08:43:46;;;;;;;2.55;1.13;;;5.40;99.90;;;;;;5036761;28;20209;-75
2023/02/28 08:46:15;;;;;;;1.50;0.90;;;5.40;99.90;;;;;;5041740;28;20222;-77
2023/02/28 08:48:44;;;;;;;2.25;1.05;;;5.40;99.90;;;;;;5035900;28;20223;-76
2023/02/28 08:51:14;;;;;;;1.20;0.73;;;5.40;99.90;;;;;;5042949;28;20251;-74
2023/02/28 08:53:43;;;;;;;2.28;1.00;;;5.40;99.90;;;;;;5042240;28;20195;-75
2023/02/28 08:56:14;;;;;;;1.90;0.90;;;5.40;99.90;;;;;;5045257;28;20259;-74
2023/02/28 08:58:43;;;;;;;1.42;0.90;;;5.40;99.90;;;;;;5041009;28;20244;-75
2023/02/28 09:01:13;;;;;;;1.88;1.02;;;5.40;99.90;;;;;;5045662;28;20702;-76
2023/02/28 09:03:43;;;;;;;1.40;0.85;;;5.40;99.90;;;;;;5038591;28;20217;-75
2023/02/28 09:06:11;;;;;;;1.35;0.90;;;5.40;99.90;;;;;;5047820;28;20262;-75
2023/02/28 09:08:40;;;;;;;2.10;0.90;;;5.40;99.90;;;;;;5062142;28;20282;-75
2023/02/28 09:11:11;;;;;;;1.55;0.80;;;5.40;99.90;;;;;;5046806;28;20192;-74
2023/02/28 09:13:40;;;;;;;1.73;1.25;;;5.40;99.90;;;;;;5044435;28;20230;-74
2023/02/28 09:16:11;;;;;;;1.05;0.70;;;5.40;99.90;;;;;;5048534;28;20248;-75
2023/02/28 09:18:40;;;;;;;1.38;0.90;;;5.40;99.90;;;;;;5048442;28;20531;-75
2023/02/28 09:21:11;;;;;;;1.50;1.20;;;5.40;99.90;;;;;;5060222;28;20704;-69
2023/02/28 09:23:40;;;;;;;1.42;1.27;;;5.40;99.90;;;;;;5034713;28;20217;-68
2023/02/28 09:26:13;;;;;;;1.10;0.65;;;5.40;99.90;;;;;;5042303;28;20248;-69
2023/02/28 09:28:42;;;;;;;1.00;0.77;;;5.40;99.90;;;;;;5043861;28;20683;-67
2023/02/28 09:31:14;;;;;;;4.40;1.13;;;5.40;99.90;;;;;;5059151;28;20200;-69
2023/02/28 09:33:43;;;;;;;3.28;1.13;;;5.40;99.90;;;;;;5063191;28;20201;-68
2023/02/28 09:36:11;;;;;;;1.30;0.90;;;5.40;99.90;;;;;;5062000;28;20267;-68
2023/02/28 09:38:40;;;;;;;1.33;0.90;;;5.40;99.90;;;;;;5043009;28;20259;-70
2023/02/28 09:41:15;;;;;;;1.23;0.93;;;5.40;99.90;;;;;;5040912;28;20886;-68
2023/02/28 09:43:48;;;;;;;1.20;0.98;;;5.40;99.90;;;;;;5034269;28;20321;-70
2023/02/28 09:46:28;;;;;;;1.10;0.80;;;5.40;99.90;;;;;;5058420;28;20315;-69
2023/02/28 09:48:58;;;;;;;2.15;1.00;;;5.40;99.90;;;;;;5037332;28;20226;-69
2023/02/28 09:51:38;;;;;;;1.55;0.88;;;5.40;99.90;;;;;;5035234;28;20200;-69
2023/02/28 09:54:10;;;;;;;1.63;0.90;;;5.40;99.90;;;;;;5053256;28;20200;-69
2023/02/28 09:56:42;;;;;;;1.13;0.70;;;5.40;99.90;;;;;;5040153;28;20270;-69
2023/02/28 09:59:19;;;;;;;2.08;1.23;;;5.40;99.90;;;;;;5038144;28;20984;-68
2023/02/28 10:01:57;;;;;;;1.40;1.00;;;5.40;99.90;;;;;;5045941;28;20201;-68
2023/02/28 10:04:41;;;;;;;1.50;1.00;;;5.40;99.90;;;;;;5046127;28;20217;-71
2023/02/28 10:07:21;;;;;;;1.83;1.10;;;5.40;99.90;;;;;;5038234;28;20225;-67
2023/02/28 10:09:54;;;;;;;1.05;0.65;;;5.40;99.90;;;;;;5049928;28;20272;-69
2023/02/28 10:12:24;;;;;;;1.25;0.95;;;5.40;99.90;;;;;;5043857;28;20667;-69
2023/02/28 10:14:55;;;;;;;3.50;1.30;;;5.40;99.90;;;;;;5043453;28;20220;-69
2023/02/28 10:17:29;;;;;;;2.08;1.02;;;5.40;99.90;;;;;;5053734;28;20581;-68
2023/02/28 10:20:07;;;;;;;2.00;1.10;;;5.40;99.90;;;;;;5054160;28;20246;-67
2023/02/28 10:22:41;;;;;;;1.75;0.90;;;5.40;99.90;;;;;;5045642;28;20197;-68
2023/02/28 10:25:21;;;;;;;1.20;0.80;;;5.40;99.90;;;;;;5057914;28;20220;-68
2023/02/28 10:27:55;;;;;;;1.73;0.98;;;5.40;99.90;;;;;;5047148;28;20221;-67
2023/02/28 10:30:23;;;;;;;1.52;1.00;;;5.40;99.90;;;;;;5044687;28;20221;-69
2023/02/28 10:32:54;;;;;;;1.10;0.70;;;5.40;99.90;;;;;;5047027;28;20229;-68
2023/02/28 10:35:25;;;;;;;1.52;0.95;;;5.40;99.90;;;;;;5063184;28;20228;-69
2023/02/28 10:37:56;;;;;;;1.38;0.85;;;5.40;99.90;;;;;;5044810;28;20590;-69
2023/02/28 10:40:32;;;;;;;1.13;0.65;;;5.40;99.90;;;;;;5058505;28;20236;-68
2023/02/28 10:43:04;;;;;;;1.75;1.02;;;5.40;99.90;;;;;;5046778;28;20223;-67
2023/02/28 10:45:36;;;;;;;1.35;0.82;;;5.40;99.90;;;;;;5049352;28;20216;-68
2023/02/28 10:48:07;;;;;;;1.25;0.93;;;5.40;99.90;;;;;;5053174;28;20207;-68
2023/02/28 10:50:43;;;;;;;1.20;0.80;;;5.40;99.90;;;;;;5052146;28;20217;-68
2023/02/28 10:53:29;;;;;;;1.80;0.88;;;5.40;99.90;;;;;;5052106;28;20238;-69
2023/02/28 10:56:00;;;;;;;1.20;0.85;;;5.40;99.90;;;;;;5057633;28;20229;-68
2023/02/28 10:58:32;;;;;;;2.38;0.82;;;5.40;99.90;;;;;;5066018;28;20201;-68
2023/02/28 11:01:01;;;;;;;1.67;0.80;;;5.40;99.90;;;;;;5051328;28;20201;-68
2023/02/28 11:03:33;;;;;;;1.00;0.80;;;5.40;99.90;;;;;;5058641;28;20734;-76
2023/02/28 11:06:08;;;;;;;1.90;1.08;;;5.40;99.90;;;;;;5054315;28;20679;-76
2023/02/28 11:08:46;;;;;;;1.20;0.90;;;5.40;99.90;;;;;;5047720;28;20687;-76
2023/02/28 11:11:16;;;;;;;3.58;1.20;;;5.40;99.90;;;;;;5053796;28;20223;-75
2023/02/28 11:13:48;;;;;;;1.30;0.80;;;5.40;99.90;;;;;;5040316;28;20226;-75
2023/02/28 11:16:17;;;;;;;1.30;0.85;;;5.40;99.90;;;;;;5050493;28;20248;-76
2023/02/28 11:18:49;;;;;;;1.30;0.98;;;5.40;99.90;;;;;;5058674;28;20196;-76
2023/02/28 11:21:22;;;;;;;1.65;1.00;;;5.40;99.90;;;;;;5033505;28;20237;-76
2023/02/28 11:23:55;;;;;;;1.63;1.08;;;5.30;99.90;;;;;;5048939;28;20268;-75
2023/02/28 11:26:38;;;;;;;1.92;1.02;;;5.40;99.90;;;;;;5059953;28;20212;-75
2023/02/28 11:29:20;;;;;;;1.75;0.82;;;5.30;99.90;;;;;;5046619;28;20193;-76
2023/02/28 11:32:04;;;;;;;1.40;0.93;;;5.30;99.90;;;;;;5048029;28;20290;-75
2023/02/28 11:34:33;;;;;;;2.35;1.08;;;5.30;99.90;;;;;;5049750;28;20228;-75
2023/02/28 11:37:04;;;;;;;1.42;0.85;;;5.40;99.90;;;;;;5047683;28;20208;-74
2023/02/28 11:39:33;;;;;;;1.20;0.75;;;5.40;99.90;;;;;;5050610;28;20290;-75
2023/02/28 11:42:44;;;;;;;0.90;0.70;;;5.30;99.90;;;;;;5045893;28;20567;-74
2023/02/28 11:45:22;;;;;;;1.55;0.90;;;5.30;99.90;;;;;;4998365;28;20808;-75
2023/02/28 11:48:02;;;;;;;1.20;0.85;;;5.30;99.90;;;;;;5054481;28;20652;-76
2023/02/28 11:50:48;;;;;;;1.13;0.80;;;5.30;99.90;;;;;;5048521;28;20700;-75
2023/02/28 11:53:24;;;;;;;1.40;0.90;;;5.30;99.90;;;;;;5026725;28;20201;-76
2023/02/28 11:56:01;;;;;;;1.20;0.77;;;5.30;99.90;;;;;;5049542;28;20267;-75
2023/02/28 11:58:47;;;;;;;1.40;0.95;;;5.30;99.90;;;;;;5045125;28;20254;-75
2023/02/28 12:01:34;;;;;;;1.40;0.98;;;5.30;99.90;;;;;;5048487;28;20196;-75
2023/02/28 12:04:15;;;;;;;1.80;1.27;;;5.30;99.90;;;;;;5064433;28;20215;-74
2023/02/28 12:06:51;;;;;;;1.10;0.70;;;5.30;99.90;;;;;;5046096;28;20307;-75
2023/02/28 12:09:37;;;;;;;1.83;1.40;;;5.30;99.90;;;;;;5061964;28;20227;-74
2023/02/28 12:12:16;;;;;;;1.50;0.95;;;5.30;99.90;;;;;;5049822;28;20193;-74
2023/02/28 12:15:16;;;;;;;1.17;0.82;;;5.30;99.90;;;;;;5050751;28;20276;-74
2023/02/28 12:17:59;;;;;;;1.63;1.00;;;5.30;99.90;;;;;;5038135;28;20613;-75
2023/02/28 12:20:35;;;;;;;1.50;0.90;;;5.30;99.90;;;;;;5024365;28;20208;-74
2023/02/28 12:23:22;;;;;;;1.70;1.20;;;5.30;99.90;;;;;;5031064;28;20209;-75
2023/02/28 12:26:06;;;;;;;1.80;1.00;;;5.30;99.90;;;;;;5037467;28;20314;-68
2023/02/28 12:28:38;;;;;;;2.13;1.23;;;5.30;99.90;;;;;;5041223;28;20190;-68
2023/02/28 12:31:12;;;;;;;1.17;0.70;;;5.30;99.90;;;;;;5055686;28;20216;-69
2023/02/28 12:33:47;;;;;;;1.70;0.98;;;5.30;99.90;;;;;;5052084;28;20209;-68
2023/02/28 12:36:21;;;;;;;1.10;0.88;;;5.30;99.90;;;;;;5043599;28;20247;-69
2023/02/28 12:38:54;;;;;;;1.40;1.00;;;5.30;99.90;;;;;;5041980;28;21608;-69
2023/02/28 12:41:30;;;;;;;2.65;1.00;;;5.30;99.90;;;;;;5030541;28;20273;-68
2023/02/28 12:44:03;;;;;;;1.40;0.80;;;5.30;99.90;;;;;;5032380;28;20200;-75
2023/02/28 12:46:36;;;;;;;1.45;1.00;;;5.30;99.90;;;;;;5045315;28;20307;-75
2023/02/28 12:49:11;;;;;;;1.40;0.88;;;5.30;99.90;;;;;;5046110;28;20585;-75
2023/02/28 12:51:44;;;;;;;1.30;0.90;;;5.40;99.90;;;;;;5047074;28;20196;-75
2023/02/28 12:54:20;;;;;;;1.75;1.10;;;5.30;99.90;;;;;;5041755;28;20258;-75
2023/02/28 12:56:57;;;;;;;1.17;0.90;;;5.40;99.90;;;;;;5045187;28;20294;-74
2023/02/28 12:59:28;;;;;;;2.25;1.13;;;5.30;99.90;;;;;;5046494;28;20266;-77
2023/02/28 13:02:34;;;;;;;1.58;1.08;;;5.40;99.90;;;;;;5045738;28;20196;-75
2023/02/28 13:05:28;;;;;;;1.35;1.02;;;5.40;99.90;;;;;;5053096;28;20233;-74
2023/02/28 13:08:24;;;;;;;1.35;1.08;;;5.40;99.90;;;;;;5035386;28;20213;-76
2023/02/28 13:10:55;;;;;;;1.40;0.90;;;5.40;99.90;;;;;;5045507;28;20220;-75
2023/02/28 13:13:26;;;;;;;1.40;1.20;;;5.40;99.90;;;;;;5047132;28;20569;-74
2023/02/28 13:16:04;;;;;;;1.40;1.00;;;5.40;99.90;;;;;;5046327;28;20231;-74
2023/02/28 13:18:37;;;;;;;1.20;0.90;;;5.40;99.90;;;;;;5043936;28;20687;-74
2023/02/28 13:21:09;;;;;;;1.10;0.80;;;5.40;99.90;;;;;;5041773;28;20192;-74
2023/02/28 13:23:56;;;;;;;1.10;1.00;;;5.40;99.90;;;;;;5046112;28;20201;-75
2023/02/28 13:27:03;;;;;;;1.42;1.08;;;5.40;99.90;;;;;;5046483;28;20221;-75